Time;durP1;ratioP1;P1;durP2;ratioP2;P2;SDS_P1;SDS_P2;PMS_P1;PMS_P2;Temp;Humidity;BMP_temperature;BMP_pressure;BME280_temperature;BME280_humidity;BME280_pressure;Samples;Min_cycle;Max_cycle;Signal;HPM_P1;HPM_P2
2021/10/09 00:00:05;;;;;;;78.78;38.58;;;;;;;;;;5020115;28;20034;-54
2021/10/09 00:02:32;;;;;;;80.65;38.92;;;;;;;;;;5021482;28;20018;-55
2021/10/09 00:04:57;;;;;;;79.45;39.70;;;;;;;;;;5017151;28;20030;-55
2021/10/09 00:07:22;;;;;;;92.45;40.83;;;;;;;;;;5022031;28;20029;-54
2021/10/09 00:09:50;;;;;;;104.47;43.88;;;;;;;;;;5021327;28;20036;-54
2021/10/09 00:12:15;;;;;;;82.03;40.20;;;;;;;;;;5016967;28;20060;-54
2021/10/09 00:14:41;;;;;;;91.18;44.20;;;;;;;;;;5022014;28;20017;-55
2021/10/09 00:17:08;;;;;;;105.55;43.95;;;;;;;;;;5020797;28;20933;-55
2021/10/09 00:19:33;;;;;;;115.38;44.55;;;;;;;;;;5019121;28;20036;-54
2021/10/09 00:21:58;;;;;;;101.47;43.20;;;;;;;;;;5022312;28;20025;-52
2021/10/09 00:24:24;;;;;;;111.85;45.47;;;;;;;;;;5013850;28;20064;-54
2021/10/09 00:26:49;;;;;;;92.03;41.60;;;;;;;;;;5015648;28;20060;-53
2021/10/09 00:29:14;;;;;;;86.90;40.60;;;;;;;;;;5018781;28;20395;-54
2021/10/09 00:31:39;;;;;;;91.57;40.45;;;;;;;;;;5017084;28;20155;-53
2021/10/09 00:34:05;;;;;;;85.75;41.55;;;;;;;;;;5033430;28;20084;-54
2021/10/09 00:36:30;;;;;;;83.00;40.47;;;;;;;;;;5013712;28;20087;-54
2021/10/09 00:38:56;;;;;;;109.78;44.90;;;;;;;;;;5021127;28;20421;-54
2021/10/09 00:41:21;;;;;;;89.13;42.30;;;;;;;;;;5023031;28;20080;-54
2021/10/09 00:43:46;;;;;;;87.47;41.63;;;;;;;;;;5016657;28;20030;-54
2021/10/09 00:46:12;;;;;;;92.32;42.13;;;;;;;;;;5020913;28;20095;-54
2021/10/09 00:48:37;;;;;;;95.03;42.53;;;;;;;;;;5019256;28;20071;-55
2021/10/09 00:51:03;;;;;;;90.15;41.22;;;;;;;;;;5019586;28;20554;-54
2021/10/09 00:53:28;;;;;;;101.43;43.08;;;;;;;;;;5019786;28;20014;-55
2021/10/09 00:55:54;;;;;;;109.50;45.95;;;;;;;;;;5022096;28;20045;-55
2021/10/09 00:58:19;;;;;;;147.02;47.25;;;;;;;;;;5017187;28;20443;-54
2021/10/09 01:00:44;;;;;;;187.05;50.85;;;;;;;;;;5020668;28;20034;-54
2021/10/09 01:03:09;;;;;;;135.65;47.85;;;;;;;;;;5022207;28;20449;-54
2021/10/09 01:05:35;;;;;;;145.32;47.47;;;;;;;;;;5019712;28;20065;-54
2021/10/09 01:08:01;;;;;;;129.70;44.70;;;;;;;;;;5021490;28;20375;-53
2021/10/09 01:10:26;;;;;;;216.07;48.92;;;;;;;;;;5020459;28;20044;-55
2021/10/09 01:12:51;;;;;;;149.13;49.58;;;;;;;;;;5016861;28;20037;-54
2021/10/09 01:15:20;;;;;;;174.85;50.72;;;;;;;;;;5011057;28;20029;-55
2021/10/09 01:17:45;;;;;;;158.95;47.58;;;;;;;;;;5015676;28;20124;-53
2021/10/09 01:20:14;;;;;;;128.13;45.78;;;;;;;;;;5015812;28;20110;-53
2021/10/09 01:22:40;;;;;;;124.78;44.58;;;;;;;;;;5026995;28;20040;-54
2021/10/09 01:25:05;;;;;;;86.57;42.47;;;;;;;;;;5021952;28;20040;-53
2021/10/09 01:27:31;;;;;;;91.43;41.03;;;;;;;;;;5013243;28;20021;-54
2021/10/09 01:29:56;;;;;;;97.20;43.67;;;;;;;;;;5018893;28;20653;-55
2021/10/09 01:32:21;;;;;;;100.53;43.80;;;;;;;;;;5018170;28;20103;-54
2021/10/09 01:34:46;;;;;;;116.35;41.63;;;;;;;;;;5014451;28;20108;-55
2021/10/09 01:37:11;;;;;;;107.38;44.35;;;;;;;;;;5016476;28;20212;-55
2021/10/09 01:39:43;;;;;;;100.32;43.67;;;;;;;;;;5017168;28;20049;-55
2021/10/09 01:42:09;;;;;;;107.40;43.58;;;;;;;;;;5017898;28;20057;-54
2021/10/09 01:44:34;;;;;;;109.32;43.50;;;;;;;;;;5020796;28;20021;-55
2021/10/09 01:46:59;;;;;;;105.30;43.15;;;;;;;;;;5018009;28;20556;-55
2021/10/09 01:49:24;;;;;;;98.38;42.85;;;;;;;;;;5020210;28;20026;-54
2021/10/09 01:51:49;;;;;;;86.90;41.05;;;;;;;;;;5017695;28;20150;-55
2021/10/09 01:54:15;;;;;;;117.75;45.22;;;;;;;;;;5016121;28;20079;-55
2021/10/09 01:56:40;;;;;;;121.32;48.90;;;;;;;;;;5010491;28;20042;-54
2021/10/09 01:59:06;;;;;;;97.35;44.80;;;;;;;;;;5013333;28;20037;-54
2021/10/09 02:01:31;;;;;;;122.85;47.20;;;;;;;;;;5016612;28;20156;-55
2021/10/09 02:03:57;;;;;;;116.65;45.45;;;;;;;;;;5013829;28;20770;-54
2021/10/09 02:06:22;;;;;;;106.95;45.53;;;;;;;;;;5018519;28;20033;-55
2021/10/09 02:08:47;;;;;;;119.18;45.78;;;;;;;;;;5014126;28;20086;-54
2021/10/09 02:11:16;;;;;;;108.70;45.15;;;;;;;;;;5012302;28;20057;-55
2021/10/09 02:27:09;;;;;;;122.13;47.83;;;;;;;;;;5021283;28;20495;-54
2021/10/09 02:29:35;;;;;;;93.32;40.92;;;;;;;;;;5011624;28;20183;-53
2021/10/09 02:32:01;;;;;;;102.00;43.60;;;;;;;;;;5014886;28;20045;-55
2021/10/09 02:34:26;;;;;;;98.15;41.72;;;;;;;;;;5021234;28;20033;-54
2021/10/09 02:36:51;;;;;;;103.47;45.05;;;;;;;;;;5017132;28;20041;-54
2021/10/09 02:39:16;;;;;;;105.57;45.10;;;;;;;;;;5022005;28;20033;-54
2021/10/09 02:41:41;;;;;;;131.40;49.50;;;;;;;;;;5019698;28;20037;-54
2021/10/09 02:44:07;;;;;;;96.40;41.95;;;;;;;;;;5017628;28;20017;-55
2021/10/09 02:46:32;;;;;;;121.35;45.65;;;;;;;;;;5021505;28;20723;-55
2021/10/09 02:48:57;;;;;;;119.25;49.40;;;;;;;;;;5015354;28;20032;-55
2021/10/09 02:51:22;;;;;;;129.02;49.08;;;;;;;;;;5017666;28;20032;-54
2021/10/09 02:53:48;;;;;;;117.47;46.20;;;;;;;;;;5018113;28;20072;-53
2021/10/09 02:56:13;;;;;;;105.03;42.42;;;;;;;;;;5018320;28;20104;-54
2021/10/09 02:58:38;;;;;;;160.15;47.47;;;;;;;;;;5023898;28;20025;-54
2021/10/09 03:01:03;;;;;;;122.70;45.60;;;;;;;;;;5019501;28;20554;-54
2021/10/09 03:03:28;;;;;;;100.55;44.65;;;;;;;;;;5020859;28;20511;-54
2021/10/09 03:05:54;;;;;;;92.95;42.22;;;;;;;;;;5021361;28;20058;-54
2021/10/09 03:08:19;;;;;;;88.00;41.05;;;;;;;;;;5020227;28;20511;-53
2021/10/09 03:10:44;;;;;;;94.13;43.72;;;;;;;;;;5020411;28;20501;-54
2021/10/09 03:13:09;;;;;;;110.05;45.63;;;;;;;;;;5023423;28;20440;-54
2021/10/09 03:15:35;;;;;;;116.72;46.58;;;;;;;;;;5017314;28;20056;-54
2021/10/09 03:18:00;;;;;;;106.30;44.33;;;;;;;;;;5016798;28;20731;-54
2021/10/09 03:20:25;;;;;;;106.95;44.75;;;;;;;;;;5013551;28;21778;-54
2021/10/09 03:22:50;;;;;;;112.78;45.70;;;;;;;;;;5019443;28;20026;-51
2021/10/09 03:25:16;;;;;;;120.10;46.58;;;;;;;;;;5016532;28;20022;-54
2021/10/09 03:27:41;;;;;;;113.45;44.83;;;;;;;;;;5017755;28;20551;-54
2021/10/09 03:30:07;;;;;;;116.90;45.47;;;;;;;;;;5015087;28;20410;-55
2021/10/09 03:32:32;;;;;;;82.60;40.35;;;;;;;;;;5019333;28;20079;-54
2021/10/09 03:34:58;;;;;;;108.90;45.42;;;;;;;;;;5020408;28;20086;-52
2021/10/09 03:37:23;;;;;;;121.28;47.65;;;;;;;;;;5026392;28;20036;-54
2021/10/09 03:39:50;;;;;;;131.80;48.28;;;;;;;;;;5022140;28;20432;-54
2021/10/09 03:42:26;;;;;;;162.60;56.10;;;;;;;;;;5018966;28;20034;-54
2021/10/09 03:45:02;;;;;;;149.18;52.25;;;;;;;;;;5021134;28;20143;-52
2021/10/09 03:52:45;;;;;;;120.75;47.95;;;;;;;;;;5018416;28;20095;-54
2021/10/09 03:55:11;;;;;;;126.70;49.15;;;;;;;;;;5014137;28;20553;-54
2021/10/09 03:57:36;;;;;;;124.10;46.90;;;;;;;;;;5015593;28;20034;-53
2021/10/09 04:00:03;;;;;;;113.20;45.90;;;;;;;;;;5015133;28;20073;-53
2021/10/09 04:02:29;;;;;;;112.32;46.28;;;;;;;;;;5014071;28;20025;-54
2021/10/09 04:04:54;;;;;;;137.68;50.20;;;;;;;;;;5022390;28;20029;-54
2021/10/09 04:07:20;;;;;;;146.32;50.63;;;;;;;;;;5014839;28;20431;-54
2021/10/09 04:09:45;;;;;;;166.38;54.28;;;;;;;;;;5021999;28;20106;-53
2021/10/09 04:12:10;;;;;;;169.30;53.45;;;;;;;;;;5017326;28;20061;-53
2021/10/09 04:14:35;;;;;;;175.77;53.83;;;;;;;;;;5014432;28;20025;-52
2021/10/09 04:17:01;;;;;;;115.55;45.00;;;;;;;;;;5021396;28;20044;-56
2021/10/09 04:19:26;;;;;;;101.95;42.40;;;;;;;;;;5019348;28;20159;-56
2021/10/09 04:21:51;;;;;;;93.95;40.78;;;;;;;;;;5016195;28;20122;-55
2021/10/09 04:24:18;;;;;;;102.82;43.80;;;;;;;;;;5023313;28;20350;-54
2021/10/09 04:26:43;;;;;;;110.22;42.65;;;;;;;;;;5022166;28;20033;-53
2021/10/09 04:29:09;;;;;;;160.38;49.63;;;;;;;;;;5018617;28;20566;-54
2021/10/09 04:31:34;;;;;;;199.30;52.60;;;;;;;;;;5019421;28;20038;-53
2021/10/09 04:33:59;;;;;;;210.20;56.22;;;;;;;;;;5015405;28;20139;-53
2021/10/09 04:36:25;;;;;;;192.63;55.60;;;;;;;;;;5022845;28;20048;-53
2021/10/09 04:38:51;;;;;;;172.68;53.00;;;;;;;;;;5017581;28;20449;-54
2021/10/09 04:41:16;;;;;;;156.00;52.25;;;;;;;;;;5017396;28;20052;-54
2021/10/09 04:43:41;;;;;;;144.55;49.25;;;;;;;;;;5009978;28;20061;-53
2021/10/09 04:46:06;;;;;;;121.03;47.25;;;;;;;;;;5018571;28;20140;-53
2021/10/09 04:48:31;;;;;;;125.85;46.47;;;;;;;;;;5016589;28;20044;-54
2021/10/09 04:50:57;;;;;;;122.47;46.53;;;;;;;;;;5020016;28;20042;-54
2021/10/09 04:53:22;;;;;;;141.52;46.90;;;;;;;;;;5012067;28;20030;-53
2021/10/09 04:55:47;;;;;;;192.27;54.05;;;;;;;;;;5016020;28;20046;-53
2021/10/09 04:58:12;;;;;;;242.55;61.63;;;;;;;;;;5022553;28;20495;-54
2021/10/09 05:00:38;;;;;;;243.43;60.63;;;;;;;;;;5018253;28;20551;-54
2021/10/09 05:03:03;;;;;;;212.45;58.35;;;;;;;;;;5020415;28;20029;-51
2021/10/09 05:05:28;;;;;;;185.20;53.58;;;;;;;;;;5021692;28;20137;-54
2021/10/09 05:07:53;;;;;;;125.55;47.42;;;;;;;;;;5019093;28;20411;-53
2021/10/09 05:10:18;;;;;;;114.97;44.83;;;;;;;;;;5016488;28;20022;-54
2021/10/09 05:12:44;;;;;;;159.98;47.28;;;;;;;;;;5019410;28;20041;-53
2021/10/09 05:15:09;;;;;;;210.05;54.53;;;;;;;;;;5019835;28;20028;-54
2021/10/09 05:17:34;;;;;;;256.60;57.70;;;;;;;;;;5014150;28;20025;-54
2021/10/09 05:20:00;;;;;;;267.35;60.92;;;;;;;;;;5007328;28;20498;-54
2021/10/09 05:22:25;;;;;;;260.30;56.65;;;;;;;;;;5025665;28;20406;-54
2021/10/09 05:24:53;;;;;;;248.88;59.83;;;;;;;;;;5018401;28;20120;-52
2021/10/09 05:27:18;;;;;;;238.20;57.67;;;;;;;;;;5006139;28;20041;-53
2021/10/09 05:29:44;;;;;;;192.20;57.72;;;;;;;;;;5015157;28;20410;-51
2021/10/09 05:32:09;;;;;;;138.70;52.85;;;;;;;;;;5017501;28;20058;-53
2021/10/09 05:34:34;;;;;;;123.63;48.63;;;;;;;;;;5019309;28;20498;-54
2021/10/09 05:36:59;;;;;;;107.40;46.22;;;;;;;;;;5015928;28;20539;-52
2021/10/09 05:39:25;;;;;;;131.40;48.70;;;;;;;;;;5020931;28;20565;-54
2021/10/09 05:41:50;;;;;;;134.15;47.92;;;;;;;;;;5017235;28;20037;-54
2021/10/09 05:44:15;;;;;;;146.85;50.92;;;;;;;;;;5012947;28;20781;-54
2021/10/09 05:46:41;;;;;;;102.43;43.53;;;;;;;;;;5014602;28;20053;-53
2021/10/09 05:49:06;;;;;;;83.60;39.67;;;;;;;;;;5017430;28;20527;-52
2021/10/09 05:51:37;;;;;;;86.78;38.45;;;;;;;;;;5017327;28;20156;-51
2021/10/09 05:54:12;;;;;;;105.47;43.88;;;;;;;;;;5030788;28;20095;-52
2021/10/09 06:42:54;;;;;;;76.13;36.70;;;;;;;;;;5016631;28;20514;-54
2021/10/09 06:45:52;;;;;;;68.93;36.55;;;;;;;;;;5021480;28;20029;-57
2021/10/09 06:48:30;;;;;;;76.07;38.13;;;;;;;;;;5014622;28;20080;-56
2021/10/09 06:59:30;;;;;;;164.73;38.45;;;;;;;;;;5015903;28;20033;-55
2021/10/09 07:01:55;;;;;;;221.70;42.85;;;;;;;;;;5023084;28;20087;-55
2021/10/09 07:04:20;;;;;;;87.35;37.83;;;;;;;;;;5024939;28;20033;-54
2021/10/09 07:06:47;;;;;;;81.47;36.10;;;;;;;;;;5019741;28;20045;-54
2021/10/09 07:09:13;;;;;;;74.07;37.20;;;;;;;;;;5021621;28;20017;-55
2021/10/09 07:11:38;;;;;;;75.35;37.70;;;;;;;;;;5010126;28;20859;-55
2021/10/09 07:14:05;;;;;;;76.85;36.20;;;;;;;;;;5017151;28;20384;-55
2021/10/09 07:16:31;;;;;;;81.25;36.15;;;;;;;;;;5013299;28;20037;-54
2021/10/09 07:18:56;;;;;;;77.55;36.92;;;;;;;;;;5011940;28;20780;-55
2021/10/09 07:21:21;;;;;;;71.72;36.50;;;;;;;;;;5014388;28;20103;-55
2021/10/09 07:23:46;;;;;;;79.63;37.47;;;;;;;;;;5019258;28;20436;-55
2021/10/09 07:26:12;;;;;;;84.63;38.55;;;;;;;;;;5016895;28;20057;-55
2021/10/09 07:28:37;;;;;;;82.65;37.65;;;;;;;;;;5010152;28;20032;-54
2021/10/09 07:31:02;;;;;;;109.03;43.15;;;;;;;;;;5015702;28;20037;-54
2021/10/09 07:33:28;;;;;;;76.22;35.78;;;;;;;;;;5019527;28;20029;-55
2021/10/09 07:35:53;;;;;;;82.72;33.28;;;;;;;;;;5018858;28;20084;-55
2021/10/09 07:38:18;;;;;;;105.00;35.80;;;;;;;;;;5017154;28;20409;-56
2021/10/09 07:40:44;;;;;;;126.78;35.78;;;;;;;;;;5010816;28;20574;-56
2021/10/09 07:43:09;;;;;;;211.88;37.25;;;;;;;;;;5010188;28;20476;-55
2021/10/09 07:45:34;;;;;;;125.65;38.00;;;;;;;;;;5016757;28;20377;-55
2021/10/09 07:47:59;;;;;;;132.77;37.08;;;;;;;;;;5013744;28;20241;-55
2021/10/09 07:50:25;;;;;;;180.65;39.55;;;;;;;;;;5013996;28;20042;-54
2021/10/09 07:52:50;;;;;;;144.73;39.92;;;;;;;;;;5025971;28;20091;-56
2021/10/09 07:55:15;;;;;;;88.72;40.63;;;;;;;;;;5017011;28;20425;-56
2021/10/09 07:57:40;;;;;;;103.75;46.75;;;;;;;;;;5029392;28;20480;-55
2021/10/09 08:00:06;;;;;;;90.75;41.22;;;;;;;;;;5007753;28;20103;-56
2021/10/09 08:02:32;;;;;;;101.15;42.42;;;;;;;;;;5012168;28;20022;-55
2021/10/09 08:04:58;;;;;;;92.65;41.15;;;;;;;;;;5014451;28;20025;-56
2021/10/09 08:07:23;;;;;;;76.28;39.25;;;;;;;;;;5014379;28;20217;-56
2021/10/09 08:09:48;;;;;;;70.70;36.03;;;;;;;;;;5013109;28;20061;-56
2021/10/09 08:12:13;;;;;;;79.90;38.67;;;;;;;;;;5017355;28;20064;-56
2021/10/09 08:14:39;;;;;;;65.50;35.40;;;;;;;;;;5011738;28;20025;-55
2021/10/09 08:17:04;;;;;;;65.72;35.15;;;;;;;;;;5022480;28;20038;-55
2021/10/09 08:19:30;;;;;;;64.22;36.20;;;;;;;;;;5012605;28;20128;-54
2021/10/09 08:21:59;;;;;;;58.35;33.60;;;;;;;;;;5011344;28;20124;-55
2021/10/09 08:24:46;;;;;;;57.10;32.67;;;;;;;;;;5011424;28;20037;-55
2021/10/09 08:27:35;;;;;;;71.47;39.60;;;;;;;;;;5013887;28;20088;-55
2021/10/09 08:40:36;;;;;;;50.70;30.00;;;;;;;;;;5018396;28;20060;-56
2021/10/09 08:43:01;;;;;;;55.42;30.05;;;;;;;;;;5020645;28;20025;-56
2021/10/09 08:45:26;;;;;;;43.85;27.33;;;;;;;;;;5007029;28;20034;-56
2021/10/09 08:47:52;;;;;;;49.85;29.05;;;;;;;;;;5019416;28;20033;-56
2021/10/09 08:50:17;;;;;;;47.28;28.00;;;;;;;;;;5008199;28;20804;-55
2021/10/09 08:53:00;;;;;;;48.22;29.50;;;;;;;;;;5014132;28;20025;-55
2021/10/09 08:55:26;;;;;;;49.15;29.15;;;;;;;;;;5020352;28;20042;-55
2021/10/09 08:57:51;;;;;;;38.78;25.27;;;;;;;;;;5018523;28;20083;-55
2021/10/09 09:00:21;;;;;;;76.63;38.50;;;;;;;;;;5018233;28;20048;-54
2021/10/09 09:02:53;;;;;;;43.88;27.60;;;;;;;;;;5014424;28;20301;-56
2021/10/09 09:08:11;;;;;;;39.65;25.27;;;;;;;;;;5013803;28;20071;-55
2021/10/09 09:32:41;;;;;;;30.20;20.23;;;;;;;;;;5016481;28;20049;-56
2021/10/09 09:38:53;;;;;;;35.92;21.33;;;;;;;;;;5009810;28;20117;-56
2021/10/09 09:40:36;;;;;;;34.33;21.13;;;;;;;;;;5011415;28;20473;-56
2021/10/09 09:43:02;;;;;;;39.10;20.58;;;;;;;;;;5013478;28;20025;-53
2021/10/09 09:45:27;;;;;;;33.38;19.92;;;;;;;;;;5015964;28;20041;-55
2021/10/09 09:47:53;;;;;;;38.72;20.60;;;;;;;;;;5007959;28;20053;-55
2021/10/09 09:50:18;;;;;;;30.00;18.55;;;;;;;;;;5011039;28;20179;-55
2021/10/09 09:52:44;;;;;;;34.13;20.83;;;;;;;;;;5032635;28;20542;-55
2021/10/09 09:55:09;;;;;;;33.58;19.73;;;;;;;;;;5016699;28;20024;-56
2021/10/09 09:57:35;;;;;;;35.22;19.73;;;;;;;;;;5019029;28;20010;-54
2021/10/09 10:00:00;;;;;;;30.20;19.38;;;;;;;;;;5012352;28;20072;-56
2021/10/09 10:02:27;;;;;;;32.25;19.00;;;;;;;;;;5015691;28;20371;-56
2021/10/09 10:04:52;;;;;;;33.35;18.85;;;;;;;;;;5015343;28;20469;-55
2021/10/09 10:07:17;;;;;;;33.92;19.50;;;;;;;;;;5030251;28;20048;-55
2021/10/09 10:09:42;;;;;;;29.80;18.90;;;;;;;;;;5022013;28;20472;-55
2021/10/09 10:12:07;;;;;;;34.00;19.35;;;;;;;;;;5022196;28;20516;-54
2021/10/09 10:14:33;;;;;;;33.05;19.27;;;;;;;;;;5022271;28;20371;-55
2021/10/09 10:16:58;;;;;;;32.78;18.73;;;;;;;;;;5019812;28;20033;-55
2021/10/09 10:19:42;;;;;;;31.17;18.42;;;;;;;;;;5013650;28;20116;-55
2021/10/09 10:22:08;;;;;;;29.27;17.42;;;;;;;;;;5011540;28;20077;-55
2021/10/09 10:24:43;;;;;;;28.75;18.13;;;;;;;;;;5016535;28;20088;-55
2021/10/09 10:27:28;;;;;;;25.23;16.48;;;;;;;;;;5013195;28;20091;-54
2021/10/09 10:30:12;;;;;;;31.38;16.52;;;;;;;;;;5017969;28;20301;-57
2021/10/09 10:32:38;;;;;;;30.92;16.65;;;;;;;;;;5011297;28;20034;-54
2021/10/09 10:35:21;;;;;;;29.85;17.55;;;;;;;;;;5021882;28;20549;-55
2021/10/09 10:37:47;;;;;;;27.42;15.27;;;;;;;;;;5009509;28;20687;-54
2021/10/09 10:40:12;;;;;;;29.80;16.85;;;;;;;;;;5012647;28;20029;-57
2021/10/09 10:42:37;;;;;;;25.75;15.63;;;;;;;;;;5023745;28;20104;-56
2021/10/09 10:45:08;;;;;;;27.27;17.17;;;;;;;;;;5020659;28;20492;-55
2021/10/09 10:47:37;;;;;;;26.63;17.15;;;;;;;;;;5006738;28;20093;-55
2021/10/09 10:50:09;;;;;;;25.98;15.05;;;;;;;;;;5008727;28;20369;-55
2021/10/09 10:52:59;;;;;;;25.85;14.98;;;;;;;;;;5005950;28;20041;-55
2021/10/09 10:55:24;;;;;;;27.75;16.38;;;;;;;;;;5016068;28;20045;-55
2021/10/09 10:58:19;;;;;;;30.63;15.85;;;;;;;;;;5017047;28;20380;-55
2021/10/09 11:01:04;;;;;;;21.23;12.65;;;;;;;;;;5015359;28;20042;-55
2021/10/09 11:03:30;;;;;;;21.75;13.60;;;;;;;;;;5011739;28;20049;-56
2021/10/09 11:05:55;;;;;;;26.10;13.60;;;;;;;;;;5031258;28;20492;-55
2021/10/09 11:08:20;;;;;;;26.48;13.55;;;;;;;;;;5024791;28;20044;-55
2021/10/09 11:10:46;;;;;;;24.15;13.75;;;;;;;;;;5019716;28;20045;-55
2021/10/09 11:13:11;;;;;;;27.25;13.35;;;;;;;;;;5017887;28;20029;-55
2021/10/09 11:15:36;;;;;;;33.88;14.02;;;;;;;;;;5022177;28;20116;-55
2021/10/09 11:18:02;;;;;;;26.10;13.25;;;;;;;;;;5024296;28;20043;-55
2021/10/09 11:20:36;;;;;;;23.30;13.40;;;;;;;;;;5021711;28;20151;-55
2021/10/09 11:23:03;;;;;;;22.92;13.13;;;;;;;;;;5018051;28;20523;-55
2021/10/09 11:25:28;;;;;;;21.52;12.38;;;;;;;;;;5008518;28;21766;-55
2021/10/09 11:27:53;;;;;;;21.33;11.57;;;;;;;;;;5014565;28;20195;-54
2021/10/09 11:30:19;;;;;;;19.73;12.82;;;;;;;;;;5016560;28;20120;-54
2021/10/09 11:32:44;;;;;;;22.75;13.27;;;;;;;;;;5011099;28;20014;-55
2021/10/09 11:35:10;;;;;;;23.83;14.00;;;;;;;;;;5019501;28;20025;-54
2021/10/09 11:37:35;;;;;;;24.60;13.05;;;;;;;;;;5022979;28;20375;-59
2021/10/09 11:40:04;;;;;;;19.33;11.35;;;;;;;;;;5022668;28;20037;-56
2021/10/09 11:42:33;;;;;;;22.65;11.80;;;;;;;;;;5016483;28;20071;-55
2021/10/09 11:45:04;;;;;;;28.27;11.63;;;;;;;;;;5009624;28;20038;-55
2021/10/09 11:53:28;;;;;;;17.05;10.77;;;;;;;;;;5014186;28;20118;-55
2021/10/09 11:55:48;;;;;;;21.63;11.40;;;;;;;;;;5002929;28;20420;-54
2021/10/09 11:58:14;;;;;;;22.77;12.45;;;;;;;;;;5005238;28;20014;-55
2021/10/09 12:00:39;;;;;;;26.17;13.63;;;;;;;;;;4990644;28;20134;-56
2021/10/09 12:03:24;;;;;;;28.80;12.77;;;;;;;;;;4996779;28;20403;-54
2021/10/09 12:06:10;;;;;;;23.88;12.15;;;;;;;;;;5020563;28;20411;-56
2021/10/09 12:08:46;;;;;;;18.58;11.18;;;;;;;;;;5021718;28;20034;-53
2021/10/09 12:11:12;;;;;;;24.05;12.65;;;;;;;;;;5019130;28;20053;-53
2021/10/09 12:13:46;;;;;;;22.70;11.95;;;;;;;;;;5014415;28;20105;-56
2021/10/09 12:16:12;;;;;;;21.63;11.02;;;;;;;;;;5010224;28;20034;-55
2021/10/09 12:18:46;;;;;;;20.95;13.02;;;;;;;;;;5007083;28;20053;-55
2021/10/09 12:21:13;;;;;;;21.60;13.07;;;;;;;;;;5011872;28;20080;-55
2021/10/09 12:23:38;;;;;;;23.13;12.82;;;;;;;;;;5018612;28;20025;-54
2021/10/09 12:26:13;;;;;;;22.45;13.48;;;;;;;;;;5013343;28;20049;-54
2021/10/09 12:28:57;;;;;;;20.38;11.88;;;;;;;;;;5023084;28;20256;-54
2021/10/09 12:31:26;;;;;;;23.02;12.18;;;;;;;;;;5013630;28;20523;-54
2021/10/09 12:33:51;;;;;;;21.83;11.60;;;;;;;;;;5012275;28;20037;-54
2021/10/09 12:36:38;;;;;;;18.15;10.75;;;;;;;;;;5015158;28;20033;-54
2021/10/09 12:39:22;;;;;;;19.52;10.70;;;;;;;;;;5014672;28;20439;-53
2021/10/09 12:41:48;;;;;;;21.83;11.85;;;;;;;;;;5020590;28;20029;-53
2021/10/09 12:44:14;;;;;;;18.80;10.30;;;;;;;;;;5017945;28;20075;-53
2021/10/09 12:46:39;;;;;;;20.58;11.68;;;;;;;;;;5017224;28;20060;-54
2021/10/09 12:49:04;;;;;;;22.38;10.35;;;;;;;;;;5015911;28;20029;-52
2021/10/09 12:51:29;;;;;;;19.15;11.15;;;;;;;;;;5017176;28;20120;-53
2021/10/09 12:53:56;;;;;;;18.73;10.20;;;;;;;;;;5012566;28;20025;-53
2021/10/09 12:56:21;;;;;;;27.33;9.65;;;;;;;;;;5017857;28;20056;-54
2021/10/09 12:58:47;;;;;;;19.08;10.30;;;;;;;;;;5018653;28;20663;-53
2021/10/09 13:01:13;;;;;;;20.95;11.05;;;;;;;;;;5011973;28;20515;-54
2021/10/09 13:03:41;;;;;;;20.15;10.98;;;;;;;;;;5011434;28;20064;-56
2021/10/09 13:06:06;;;;;;;18.70;10.88;;;;;;;;;;5012338;28;20059;-56
2021/10/09 13:08:31;;;;;;;18.30;10.50;;;;;;;;;;5021879;28;20506;-55
2021/10/09 13:10:59;;;;;;;17.13;10.10;;;;;;;;;;5018191;28;20128;-55
2021/10/09 13:13:24;;;;;;;15.98;10.48;;;;;;;;;;5020773;28;20041;-55
2021/10/09 13:15:55;;;;;;;17.75;10.88;;;;;;;;;;5014458;28;20039;-55
2021/10/09 13:18:20;;;;;;;18.63;10.15;;;;;;;;;;5004328;28;20087;-56
2021/10/09 13:20:46;;;;;;;18.73;10.27;;;;;;;;;;5001067;28;20045;-56
2021/10/09 13:23:11;;;;;;;20.75;10.35;;;;;;;;;;5013459;28;20589;-56
2021/10/09 13:25:36;;;;;;;19.63;10.40;;;;;;;;;;5013024;28;20234;-52
2021/10/09 13:28:01;;;;;;;27.23;11.63;;;;;;;;;;5014256;28;20022;-53
2021/10/09 13:30:27;;;;;;;18.98;10.48;;;;;;;;;;5006814;28;20684;-54
2021/10/09 13:32:52;;;;;;;16.48;10.23;;;;;;;;;;5009923;28;20037;-56
2021/10/09 13:35:17;;;;;;;19.42;9.98;;;;;;;;;;5010781;28;20113;-55
2021/10/09 13:37:46;;;;;;;18.95;10.30;;;;;;;;;;5012375;28;20018;-55
2021/10/09 13:40:11;;;;;;;20.83;10.75;;;;;;;;;;5008646;28;20130;-55
2021/10/09 13:42:36;;;;;;;19.35;10.73;;;;;;;;;;5015036;28;20060;-55
2021/10/09 13:45:02;;;;;;;17.83;9.70;;;;;;;;;;5016033;28;20272;-54
2021/10/09 13:47:27;;;;;;;17.27;10.10;;;;;;;;;;5015630;28;20026;-54
2021/10/09 13:49:52;;;;;;;17.88;10.30;;;;;;;;;;5019961;28;20474;-55
2021/10/09 13:52:17;;;;;;;20.73;10.13;;;;;;;;;;5016904;28;20460;-55
2021/10/09 13:54:43;;;;;;;19.08;9.82;;;;;;;;;;5014149;28;20495;-55
2021/10/09 13:57:08;;;;;;;16.42;9.50;;;;;;;;;;5018115;28;20022;-54
2021/10/09 13:59:36;;;;;;;15.27;8.10;;;;;;;;;;5013810;28;20057;-55
2021/10/09 14:02:01;;;;;;;22.20;9.63;;;;;;;;;;5015449;28;20464;-53
2021/10/09 14:04:26;;;;;;;15.13;8.20;;;;;;;;;;5014378;28;20490;-54
2021/10/09 14:06:52;;;;;;;12.43;7.45;;;;;;;;;;5013043;28;20045;-55
2021/10/09 14:09:17;;;;;;;15.75;7.80;;;;;;;;;;5013627;28;20542;-55
2021/10/09 14:11:42;;;;;;;12.77;8.27;;;;;;;;;;5009574;28;20054;-54
2021/10/09 14:14:07;;;;;;;13.95;8.00;;;;;;;;;;5005549;28;20116;-53
2021/10/09 14:16:33;;;;;;;23.90;9.52;;;;;;;;;;5013309;28;20577;-54
2021/10/09 14:18:58;;;;;;;14.18;7.38;;;;;;;;;;5011929;28;20365;-55
2021/10/09 14:21:23;;;;;;;12.05;7.35;;;;;;;;;;5012670;28;20339;-55
2021/10/09 14:23:48;;;;;;;15.73;8.25;;;;;;;;;;5010614;28;20026;-55
2021/10/09 14:26:14;;;;;;;18.48;8.65;;;;;;;;;;5015509;28;20073;-54
2021/10/09 14:28:39;;;;;;;15.02;7.63;;;;;;;;;;5020256;28;20079;-54
2021/10/09 14:31:04;;;;;;;13.07;7.13;;;;;;;;;;5019568;28;20128;-53
2021/10/09 14:33:29;;;;;;;13.38;7.10;;;;;;;;;;5018636;28;20227;-55
2021/10/09 14:35:55;;;;;;;15.88;8.57;;;;;;;;;;5015339;28;20072;-54
2021/10/09 14:38:20;;;;;;;12.98;7.20;;;;;;;;;;5023545;28;20464;-53
2021/10/09 14:40:45;;;;;;;14.38;7.30;;;;;;;;;;5022501;28;20073;-54
2021/10/09 14:43:11;;;;;;;12.50;7.22;;;;;;;;;;5015326;28;20077;-54
2021/10/09 14:45:36;;;;;;;14.10;7.20;;;;;;;;;;5016788;28;20041;-54
2021/10/09 15:19:38;;;;;;;14.77;7.32;;;;;;;;;;5008219;28;20161;-55
2021/10/09 15:22:06;;;;;;;10.60;7.22;;;;;;;;;;5016692;28;20576;-55
2021/10/09 15:24:31;;;;;;;14.50;6.88;;;;;;;;;;5019280;28;20014;-53
2021/10/09 15:26:56;;;;;;;18.65;6.55;;;;;;;;;;5016484;28;20119;-56
2021/10/09 15:29:21;;;;;;;15.93;6.95;;;;;;;;;;5024772;28;20359;-53
2021/10/09 15:31:47;;;;;;;14.63;6.85;;;;;;;;;;5025173;28;20033;-53
2021/10/09 15:34:12;;;;;;;14.13;7.38;;;;;;;;;;5024664;28;20040;-54
2021/10/09 15:36:37;;;;;;;12.95;6.32;;;;;;;;;;5013847;28;20140;-53
2021/10/09 15:39:03;;;;;;;12.68;6.70;;;;;;;;;;5022284;28;20029;-54
2021/10/09 15:41:28;;;;;;;13.82;7.40;;;;;;;;;;5017250;28;20069;-52
2021/10/09 15:43:54;;;;;;;11.20;6.45;;;;;;;;;;5021108;28;20091;-53
2021/10/09 15:46:19;;;;;;;18.30;7.03;;;;;;;;;;5019997;28;20045;-53
2021/10/09 15:48:44;;;;;;;12.05;6.57;;;;;;;;;;5018225;28;20066;-54
2021/10/09 15:51:10;;;;;;;17.17;7.22;;;;;;;;;;5023668;28;20125;-53
2021/10/09 15:53:38;;;;;;;14.80;6.80;;;;;;;;;;5012842;28;20405;-54
2021/10/09 15:56:03;;;;;;;14.55;6.88;;;;;;;;;;5016122;28;20098;-53
2021/10/09 15:58:28;;;;;;;17.20;7.07;;;;;;;;;;5007916;28;20475;-54
2021/10/09 16:00:54;;;;;;;15.25;6.68;;;;;;;;;;5016453;28;20442;-54
2021/10/09 16:03:21;;;;;;;12.90;6.90;;;;;;;;;;5011504;28;20026;-54
2021/10/09 16:05:46;;;;;;;15.57;7.13;;;;;;;;;;5015069;28;20067;-53
2021/10/09 16:08:11;;;;;;;15.98;7.47;;;;;;;;;;5013567;28;20057;-54
2021/10/09 16:10:36;;;;;;;12.43;6.85;;;;;;;;;;5009958;28;20084;-53
2021/10/09 16:13:02;;;;;;;15.48;7.53;;;;;;;;;;5013889;28;20022;-54
2021/10/09 16:15:30;;;;;;;19.70;7.10;;;;;;;;;;5020921;28;20569;-56
2021/10/09 16:17:55;;;;;;;13.15;7.00;;;;;;;;;;5021989;28;20500;-54
2021/10/09 16:20:20;;;;;;;17.15;6.78;;;;;;;;;;5013989;28;20073;-54
2021/10/09 16:22:47;;;;;;;19.00;7.05;;;;;;;;;;5011179;28;20511;-54
2021/10/09 16:25:13;;;;;;;18.65;6.18;;;;;;;;;;5011084;28;20033;-53
2021/10/09 16:27:38;;;;;;;15.90;7.20;;;;;;;;;;5010765;28;20731;-52
2021/10/09 16:30:03;;;;;;;15.40;7.07;;;;;;;;;;5010750;28;20029;-54
2021/10/09 16:32:28;;;;;;;14.07;7.68;;;;;;;;;;5009195;28;20029;-54
2021/10/09 16:34:54;;;;;;;15.70;8.05;;;;;;;;;;5019459;28;20668;-55
2021/10/09 16:37:19;;;;;;;17.70;8.00;;;;;;;;;;5012834;28;20025;-56
2021/10/09 16:39:44;;;;;;;15.93;7.88;;;;;;;;;;5007607;28;20041;-53